sensor_id;sensor_type;location;lat;lon;timestamp;pressure;altitude;pressure_sealevel;temperature;humidity
77041;BME280;65974;42.664;23.264;2023-02-03T00:00:02;94613.69;;;1.13;70.50
77041;BME280;65974;42.664;23.264;2023-02-03T00:02:27;94613.69;;;1.13;70.79
77041;BME280;65974;42.664;23.264;2023-02-03T00:04:53;94612.97;;;1.04;71.94
77041;BME280;65974;42.664;23.264;2023-02-03T00:07:18;94615.91;;;0.94;72.67
77041;BME280;65974;42.664;23.264;2023-02-03T00:09:44;94615.91;;;0.86;73.06
77041;BME280;65974;42.664;23.264;2023-02-03T00:12:09;94609.63;;;0.78;74.03
77041;BME280;65974;42.664;23.264;2023-02-03T00:14:34;94621.94;;;0.77;74.01
77041;BME280;65974;42.664;23.264;2023-02-03T00:17:02;94624.13;;;0.75;74.51
77041;BME280;65974;42.664;23.264;2023-02-03T00:19:27;94618.75;;;0.72;75.31
77041;BME280;65974;42.664;23.264;2023-02-03T00:21:53;94617.97;;;0.71;75.47
77041;BME280;65974;42.664;23.264;2023-02-03T00:24:20;94613.78;;;0.70;75.51
77041;BME280;65974;42.664;23.264;2023-02-03T00:26:48;94622.41;;;0.71;75.30
77041;BME280;65974;42.664;23.264;2023-02-03T00:29:14;94621.50;;;0.75;75.10
77041;BME280;65974;42.664;23.264;2023-02-03T00:31:39;94618.88;;;0.75;74.99
77041;BME280;65974;42.664;23.264;2023-02-03T00:34:05;94625.03;;;0.71;75.51
77041;BME280;65974;42.664;23.264;2023-02-03T00:36:30;94628.91;;;0.73;75.43
77041;BME280;65974;42.664;23.264;2023-02-03T00:38:56;94628.13;;;0.73;75.22
77041;BME280;65974;42.664;23.264;2023-02-03T00:41:22;94638.00;;;0.76;75.14
77041;BME280;65974;42.664;23.264;2023-02-03T00:43:48;94641.41;;;0.76;74.90
77041;BME280;65974;42.664;23.264;2023-02-03T00:46:14;94646.63;;;0.76;74.27
77041;BME280;65974;42.664;23.264;2023-02-03T00:48:40;94642.16;;;0.77;74.16
77041;BME280;65974;42.664;23.264;2023-02-03T00:51:05;94636.91;;;0.77;74.12
77041;BME280;65974;42.664;23.264;2023-02-03T00:53:31;94633.22;;;0.78;73.23
77041;BME280;65974;42.664;23.264;2023-02-03T00:55:57;94636.63;;;0.78;73.05
77041;BME280;65974;42.664;23.264;2023-02-03T00:58:22;94640.63;;;0.76;73.24
77041;BME280;65974;42.664;23.264;2023-02-03T01:00:47;94634.59;;;0.75;73.34
77041;BME280;65974;42.664;23.264;2023-02-03T01:03:13;94638.47;;;0.78;73.01
77041;BME280;65974;42.664;23.264;2023-02-03T01:05:38;94654.03;;;0.74;73.55
77041;BME280;65974;42.664;23.264;2023-02-03T01:08:04;94653.25;;;0.74;73.29
77041;BME280;65974;42.664;23.264;2023-02-03T01:10:29;94663.13;;;0.68;73.94
77041;BME280;65974;42.664;23.264;2023-02-03T01:12:55;94662.19;;;0.64;73.50
77041;BME280;65974;42.664;23.264;2023-02-03T01:15:20;94669.00;;;0.65;73.74
77041;BME280;65974;42.664;23.264;2023-02-03T01:17:46;94659.75;;;0.68;73.39
77041;BME280;65974;42.664;23.264;2023-02-03T01:20:11;94653.72;;;0.67;73.50
77041;BME280;65974;42.664;23.264;2023-02-03T01:22:38;94650.94;;;0.64;73.29
77041;BME280;65974;42.664;23.264;2023-02-03T01:25:04;94654.50;;;0.59;73.66
77041;BME280;65974;42.664;23.264;2023-02-03T01:27:31;94658.19;;;0.58;73.39
77041;BME280;65974;42.664;23.264;2023-02-03T01:29:58;94663.59;;;0.53;73.71
77041;BME280;65974;42.664;23.264;2023-02-03T01:32:24;94669.44;;;0.50;73.82
77041;BME280;65974;42.664;23.264;2023-02-03T01:34:49;94656.34;;;0.50;74.20
77041;BME280;65974;42.664;23.264;2023-02-03T01:37:14;94662.06;;;0.52;74.09
77041;BME280;65974;42.664;23.264;2023-02-03T01:39:42;94657.41;;;0.49;73.78
77041;BME280;65974;42.664;23.264;2023-02-03T01:42:11;94656.22;;;0.47;73.77
77041;BME280;65974;42.664;23.264;2023-02-03T01:44:45;94655.56;;;0.41;74.32
77041;BME280;65974;42.664;23.264;2023-02-03T01:49:59;94657.59;;;0.44;73.80
77041;BME280;65974;42.664;23.264;2023-02-03T01:52:26;94660.94;;;0.36;74.33
77041;BME280;65974;42.664;23.264;2023-02-03T01:54:55;94678.53;;;0.36;74.20
77041;BME280;65974;42.664;23.264;2023-02-03T01:57:26;94675.75;;;0.41;73.87
77041;BME280;65974;42.664;23.264;2023-02-03T01:59:55;94669.13;;;0.43;74.03
77041;BME280;65974;42.664;23.264;2023-02-03T02:02:22;94669.44;;;0.42;73.71
77041;BME280;65974;42.664;23.264;2023-02-03T02:04:57;94663.91;;;0.43;73.34
77041;BME280;65974;42.664;23.264;2023-02-03T02:07:27;94671.63;;;0.48;72.76
77041;BME280;65974;42.664;23.264;2023-02-03T02:09:54;94668.81;;;0.53;72.17
77041;BME280;65974;42.664;23.264;2023-02-03T02:12:20;94674.69;;;0.50;72.61
77041;BME280;65974;42.664;23.264;2023-02-03T02:14:46;94671.16;;;0.55;72.13
77041;BME280;65974;42.664;23.264;2023-02-03T02:17:24;94686.56;;;0.56;72.30
77041;BME280;65974;42.664;23.264;2023-02-03T02:34:45;94711.69;;;0.57;71.87
77041;BME280;65974;42.664;23.264;2023-02-03T02:37:30;94700.44;;;0.57;71.56
77041;BME280;65974;42.664;23.264;2023-02-03T02:40:20;94697.50;;;0.58;71.54
77041;BME280;65974;42.664;23.264;2023-02-03T02:48:16;94686.09;;;0.54;71.56
77041;BME280;65974;42.664;23.264;2023-02-03T02:50:45;94677.63;;;0.49;71.52
77041;BME280;65974;42.664;23.264;2023-02-03T02:53:13;94691.34;;;0.54;71.24
77041;BME280;65974;42.664;23.264;2023-02-03T02:55:41;94696.91;;;0.61;70.27
77041;BME280;65974;42.664;23.264;2023-02-03T02:58:10;94701.69;;;0.59;69.74
77041;BME280;65974;42.664;23.264;2023-02-03T03:00:37;94709.69;;;0.63;69.45
77041;BME280;65974;42.664;23.264;2023-02-03T03:05:57;94721.41;;;0.65;69.16
77041;BME280;65974;42.664;23.264;2023-02-03T03:08:47;94720.94;;;0.63;69.17
77041;BME280;65974;42.664;23.264;2023-02-03T03:11:16;94720.63;;;0.56;69.17
77041;BME280;65974;42.664;23.264;2023-02-03T03:13:50;94712.91;;;0.51;68.97
77041;BME280;65974;42.664;23.264;2023-02-03T03:16:17;94719.09;;;0.55;68.88
77041;BME280;65974;42.664;23.264;2023-02-03T03:18:48;94723.25;;;0.56;68.23
77041;BME280;65974;42.664;23.264;2023-02-03T03:21:21;94726.47;;;0.53;68.37
77041;BME280;65974;42.664;23.264;2023-02-03T03:23:48;94736.34;;;0.56;67.84
77041;BME280;65974;42.664;23.264;2023-02-03T03:26:17;94734.97;;;0.59;68.15
77041;BME280;65974;42.664;23.264;2023-02-03T03:28:56;94733.13;;;0.59;68.14
77041;BME280;65974;42.664;23.264;2023-02-03T03:31:22;94740.53;;;0.57;68.03
77041;BME280;65974;42.664;23.264;2023-02-03T03:33:48;94744.34;;;0.51;68.32
77041;BME280;65974;42.664;23.264;2023-02-03T03:36:29;94734.50;;;0.48;68.45
77041;BME280;65974;42.664;23.264;2023-02-03T03:39:14;94742.81;;;0.50;68.09
77041;BME280;65974;42.664;23.264;2023-02-03T03:44:18;94742.47;;;0.43;68.47
77041;BME280;65974;42.664;23.264;2023-02-03T03:46:51;94740.78;;;0.47;68.62
77041;BME280;65974;42.664;23.264;2023-02-03T03:49:22;94727.53;;;0.44;68.79
77041;BME280;65974;42.664;23.264;2023-02-03T03:51:55;94728.47;;;0.48;68.36
77041;BME280;65974;42.664;23.264;2023-02-03T03:54:23;94728.63;;;0.51;68.24
77041;BME280;65974;42.664;23.264;2023-02-03T03:57:10;94726.00;;;0.43;68.68
77041;BME280;65974;42.664;23.264;2023-02-03T03:59:40;94724.59;;;0.45;68.77
77041;BME280;65974;42.664;23.264;2023-02-03T04:02:08;94719.38;;;0.45;69.14
77041;BME280;65974;42.664;23.264;2023-02-03T04:04:35;94727.84;;;0.42;68.75
77041;BME280;65974;42.664;23.264;2023-02-03T04:07:02;94728.59;;;0.43;68.93
77041;BME280;65974;42.664;23.264;2023-02-03T04:09:27;94727.09;;;0.42;68.99
77041;BME280;65974;42.664;23.264;2023-02-03T04:11:53;94728.31;;;0.44;68.87
77041;BME280;65974;42.664;23.264;2023-02-03T04:14:32;94737.88;;;0.40;69.18
77041;BME280;65974;42.664;23.264;2023-02-03T04:16:59;94743.72;;;0.37;68.80
77041;BME280;65974;42.664;23.264;2023-02-03T04:19:25;94743.84;;;0.32;69.28
77041;BME280;65974;42.664;23.264;2023-02-03T04:21:50;94752.63;;;0.36;69.33
77041;BME280;65974;42.664;23.264;2023-02-03T04:24:15;94742.31;;;0.31;69.35
77041;BME280;65974;42.664;23.264;2023-02-03T04:26:41;94747.72;;;0.35;69.13
77041;BME280;65974;42.664;23.264;2023-02-03T04:29:06;94759.72;;;0.27;69.67
77041;BME280;65974;42.664;23.264;2023-02-03T04:31:32;94756.63;;;0.25;69.46
77041;BME280;65974;42.664;23.264;2023-02-03T04:33:57;94760.31;;;0.24;69.42
77041;BME280;65974;42.664;23.264;2023-02-03T04:36:23;94752.28;;;0.12;70.38
77041;BME280;65974;42.664;23.264;2023-02-03T04:38:48;94760.59;;;0.14;70.20
77041;BME280;65974;42.664;23.264;2023-02-03T04:41:14;94769.25;;;0.23;69.97
77041;BME280;65974;42.664;23.264;2023-02-03T04:43:39;94773.06;;;0.17;69.65
77041;BME280;65974;42.664;23.264;2023-02-03T04:46:05;94773.56;;;0.19;69.55
77041;BME280;65974;42.664;23.264;2023-02-03T04:48:30;94781.69;;;0.18;69.72
77041;BME280;65974;42.664;23.264;2023-02-03T04:51:04;94772.34;;;0.25;69.50
77041;BME280;65974;42.664;23.264;2023-02-03T04:53:30;94777.09;;;0.15;69.58
77041;BME280;65974;42.664;23.264;2023-02-03T04:55:56;94790.81;;;0.20;69.58
77041;BME280;65974;42.664;23.264;2023-02-03T04:58:22;94792.97;;;0.18;69.88
77041;BME280;65974;42.664;23.264;2023-02-03T05:00:48;94789.75;;;0.21;69.48
77041;BME280;65974;42.664;23.264;2023-02-03T05:03:13;94798.06;;;0.23;69.71
77041;BME280;65974;42.664;23.264;2023-02-03T05:05:39;94797.84;;;0.11;69.85
77041;BME280;65974;42.664;23.264;2023-02-03T05:08:04;94796.78;;;0.12;69.83
77041;BME280;65974;42.664;23.264;2023-02-03T05:10:30;94792.63;;;0.11;70.04
77041;BME280;65974;42.664;23.264;2023-02-03T05:12:56;94805.00;;;0.19;69.81
77041;BME280;65974;42.664;23.264;2023-02-03T05:15:21;94803.91;;;0.20;69.83
77041;BME280;65974;42.664;23.264;2023-02-03T05:17:46;94811.16;;;0.23;69.40
77041;BME280;65974;42.664;23.264;2023-02-03T05:20:12;94813.78;;;0.23;69.65
77041;BME280;65974;42.664;23.264;2023-02-03T05:22:38;94818.81;;;0.11;70.01
77041;BME280;65974;42.664;23.264;2023-02-03T05:25:04;94828.25;;;0.21;69.73
77041;BME280;65974;42.664;23.264;2023-02-03T05:27:30;94830.56;;;0.22;70.41
77041;BME280;65974;42.664;23.264;2023-02-03T05:29:55;94830.56;;;0.22;70.70
77041;BME280;65974;42.664;23.264;2023-02-03T05:32:22;94840.56;;;0.20;70.29
77041;BME280;65974;42.664;23.264;2023-02-03T05:34:47;94838.72;;;0.21;70.23
77041;BME280;65974;42.664;23.264;2023-02-03T05:37:13;94842.72;;;0.18;70.05
77041;BME280;65974;42.664;23.264;2023-02-03T05:39:38;94838.53;;;0.17;70.68
77041;BME280;65974;42.664;23.264;2023-02-03T05:42:04;94847.00;;;0.14;70.08
77041;BME280;65974;42.664;23.264;2023-02-03T05:44:29;94837.16;;;0.20;70.20
77041;BME280;65974;42.664;23.264;2023-02-03T05:46:56;94833.91;;;0.14;70.10
77041;BME280;65974;42.664;23.264;2023-02-03T05:49:22;94844.81;;;0.08;70.53
77041;BME280;65974;42.664;23.264;2023-02-03T05:51:52;94834.50;;;0.11;70.15
77041;BME280;65974;42.664;23.264;2023-02-03T05:54:18;94840.38;;;0.08;70.08
77041;BME280;65974;42.664;23.264;2023-02-03T05:56:43;94844.38;;;0.14;70.18
77041;BME280;65974;42.664;23.264;2023-02-03T05:59:09;94856.41;;;0.15;69.76
77041;BME280;65974;42.664;23.264;2023-02-03T06:01:35;94858.72;;;0.17;69.81
77041;BME280;65974;42.664;23.264;2023-02-03T06:04:01;94857.31;;;0.11;70.19
77041;BME280;65974;42.664;23.264;2023-02-03T06:06:27;94856.72;;;0.14;69.83
77041;BME280;65974;42.664;23.264;2023-02-03T06:09:00;94867.97;;;0.14;69.63
77041;BME280;65974;42.664;23.264;2023-02-03T06:11:26;94872.28;;;0.19;69.77
77041;BME280;65974;42.664;23.264;2023-02-03T06:13:53;94863.06;;;0.21;69.40
77041;BME280;65974;42.664;23.264;2023-02-03T06:16:19;94874.44;;;0.17;69.50
77041;BME280;65974;42.664;23.264;2023-02-03T06:18:45;94870.78;;;0.26;68.99
77041;BME280;65974;42.664;23.264;2023-02-03T06:21:10;94877.09;;;0.25;69.15
77041;BME280;65974;42.664;23.264;2023-02-03T06:23:36;94870.34;;;0.33;68.47
77041;BME280;65974;42.664;23.264;2023-02-03T06:26:01;94873.13;;;0.36;68.08
77041;BME280;65974;42.664;23.264;2023-02-03T06:28:27;94886.56;;;0.43;67.29
77041;BME280;65974;42.664;23.264;2023-02-03T06:30:52;94881.81;;;0.45;67.40
77041;BME280;65974;42.664;23.264;2023-02-03T06:33:18;94884.13;;;0.47;66.99
77041;BME280;65974;42.664;23.264;2023-02-03T06:35:43;94890.13;;;0.47;67.08
77041;BME280;65974;42.664;23.264;2023-02-03T06:38:09;94894.66;;;0.55;66.36
77041;BME280;65974;42.664;23.264;2023-02-03T06:40:34;94889.25;;;0.60;66.42
77041;BME280;65974;42.664;23.264;2023-02-03T06:43:00;94883.59;;;0.75;65.93
77041;BME280;65974;42.664;23.264;2023-02-03T06:45:25;94896.84;;;0.70;65.36
77041;BME280;65974;42.664;23.264;2023-02-03T06:47:51;94903.34;;;0.82;65.26
77041;BME280;65974;42.664;23.264;2023-02-03T06:50:17;94907.84;;;0.90;64.82
77041;BME280;65974;42.664;23.264;2023-02-03T06:52:43;94910.00;;;0.88;64.59
77041;BME280;65974;42.664;23.264;2023-02-03T06:55:09;94918.63;;;0.79;65.07
77041;BME280;65974;42.664;23.264;2023-02-03T06:57:35;94913.22;;;0.76;64.91
77041;BME280;65974;42.664;23.264;2023-02-03T07:00:01;94917.41;;;0.86;64.89
77041;BME280;65974;42.664;23.264;2023-02-03T07:02:26;94920.94;;;0.90;64.44
77041;BME280;65974;42.664;23.264;2023-02-03T07:04:52;94909.13;;;1.09;63.98
77041;BME280;65974;42.664;23.264;2023-02-03T07:07:18;94916.41;;;1.12;63.76
77041;BME280;65974;42.664;23.264;2023-02-03T07:09:44;94921.31;;;1.14;63.99
77041;BME280;65974;42.664;23.264;2023-02-03T07:12:10;94919.34;;;1.28;63.38
77041;BME280;65974;42.664;23.264;2023-02-03T07:14:35;94923.97;;;1.22;63.18
77041;BME280;65974;42.664;23.264;2023-02-03T07:17:02;94929.38;;;1.34;62.81
77041;BME280;65974;42.664;23.264;2023-02-03T07:19:28;94917.22;;;1.30;63.05
77041;BME280;65974;42.664;23.264;2023-02-03T07:21:53;94910.72;;;1.36;62.41
77041;BME280;65974;42.664;23.264;2023-02-03T07:24:19;94917.66;;;1.23;62.66
77041;BME280;65974;42.664;23.264;2023-02-03T07:26:44;94925.38;;;1.28;61.99
77041;BME280;65974;42.664;23.264;2023-02-03T07:29:10;94930.94;;;1.27;62.18
77041;BME280;65974;42.664;23.264;2023-02-03T07:31:36;94932.44;;;1.19;62.67
77041;BME280;65974;42.664;23.264;2023-02-03T07:34:02;94931.38;;;1.29;62.27
77041;BME280;65974;42.664;23.264;2023-02-03T07:36:28;94934.78;;;1.29;62.04
77041;BME280;65974;42.664;23.264;2023-02-03T07:38:54;94938.94;;;1.30;61.63
77041;BME280;65974;42.664;23.264;2023-02-03T07:41:19;94936.03;;;1.32;61.87
77041;BME280;65974;42.664;23.264;2023-02-03T07:43:45;94939.13;;;1.34;62.54
77041;BME280;65974;42.664;23.264;2023-02-03T07:46:11;94938.81;;;1.35;61.39
77041;BME280;65974;42.664;23.264;2023-02-03T07:48:36;94937.56;;;1.33;62.35
77041;BME280;65974;42.664;23.264;2023-02-03T07:51:02;94936.19;;;1.35;61.96
77041;BME280;65974;42.664;23.264;2023-02-03T07:53:27;94928.63;;;1.34;61.62
77041;BME280;65974;42.664;23.264;2023-02-03T07:55:53;94937.25;;;1.34;61.69
77041;BME280;65974;42.664;23.264;2023-02-03T07:58:18;94945.44;;;1.33;61.87
77041;BME280;65974;42.664;23.264;2023-02-03T08:00:44;94947.00;;;1.42;62.13
77041;BME280;65974;42.664;23.264;2023-02-03T08:03:09;94942.69;;;1.46;61.75
77041;BME280;65974;42.664;23.264;2023-02-03T08:05:36;94955.34;;;1.53;61.42
77041;BME280;65974;42.664;23.264;2023-02-03T08:08:02;94941.59;;;1.56;61.51
77041;BME280;65974;42.664;23.264;2023-02-03T08:10:27;94947.16;;;1.46;61.10
77041;BME280;65974;42.664;23.264;2023-02-03T08:12:54;94939.75;;;1.56;61.44
77041;BME280;65974;42.664;23.264;2023-02-03T08:15:20;94933.13;;;1.50;61.11
77041;BME280;65974;42.664;23.264;2023-02-03T08:17:48;94936.53;;;1.51;61.89
77041;BME280;65974;42.664;23.264;2023-02-03T08:20:13;94946.06;;;1.47;61.28
77041;BME280;65974;42.664;23.264;2023-02-03T08:22:39;94938.19;;;1.30;62.08
77041;BME280;65974;42.664;23.264;2023-02-03T08:25:04;94939.44;;;1.41;60.82
77041;BME280;65974;42.664;23.264;2023-02-03T08:27:31;94950.56;;;1.46;60.15
77041;BME280;65974;42.664;23.264;2023-02-03T08:29:57;94947.16;;;1.54;60.34
77041;BME280;65974;42.664;23.264;2023-02-03T08:32:22;94947.19;;;1.63;60.32
77041;BME280;65974;42.664;23.264;2023-02-03T08:34:50;94949.94;;;1.75;59.87
77041;BME280;65974;42.664;23.264;2023-02-03T08:37:20;94951.97;;;1.78;59.75
77041;BME280;65974;42.664;23.264;2023-02-03T08:39:48;94962.63;;;1.90;60.31
77041;BME280;65974;42.664;23.264;2023-02-03T08:42:14;94960.44;;;2.01;59.13
77041;BME280;65974;42.664;23.264;2023-02-03T08:44:42;94967.41;;;1.97;59.14
77041;BME280;65974;42.664;23.264;2023-02-03T08:47:10;94965.88;;;1.87;59.76
77041;BME280;65974;42.664;23.264;2023-02-03T08:49:36;94977.13;;;1.79;60.26
77041;BME280;65974;42.664;23.264;2023-02-03T08:52:04;94989.34;;;1.75;61.11
77041;BME280;65974;42.664;23.264;2023-02-03T08:54:31;94988.25;;;1.76;61.61
77041;BME280;65974;42.664;23.264;2023-02-03T08:56:57;94990.44;;;1.74;61.92
77041;BME280;65974;42.664;23.264;2023-02-03T08:59:23;94988.72;;;1.70;61.86
77041;BME280;65974;42.664;23.264;2023-02-03T09:01:50;94988.72;;;1.70;61.96
77041;BME280;65974;42.664;23.264;2023-02-03T09:04:16;94999.69;;;1.72;62.85
77041;BME280;65974;42.664;23.264;2023-02-03T09:06:49;94996.94;;;1.77;62.71
77041;BME280;65974;42.664;23.264;2023-02-03T09:09:15;94989.34;;;1.75;62.61
77041;BME280;65974;42.664;23.264;2023-02-03T09:11:41;94981.47;;;1.92;62.35
77041;BME280;65974;42.664;23.264;2023-02-03T09:14:08;94982.09;;;1.89;61.76
77041;BME280;65974;42.664;23.264;2023-02-03T09:16:35;94979.00;;;1.87;61.96
77041;BME280;65974;42.664;23.264;2023-02-03T09:19:00;94973.75;;;2.21;61.45
77041;BME280;65974;42.664;23.264;2023-02-03T09:21:26;94981.41;;;2.52;60.76
77041;BME280;65974;42.664;23.264;2023-02-03T09:23:51;94968.19;;;2.78;59.27
77041;BME280;65974;42.664;23.264;2023-02-03T09:26:17;94968.44;;;2.93;58.14
77041;BME280;65974;42.664;23.264;2023-02-03T09:28:42;94971.56;;;2.87;58.25
77041;BME280;65974;42.664;23.264;2023-02-03T09:31:13;94975.63;;;3.13;57.60
77041;BME280;65974;42.664;23.264;2023-02-03T09:33:39;94970.59;;;3.29;57.40
77041;BME280;65974;42.664;23.264;2023-02-03T09:36:06;94965.63;;;3.36;56.38
77041;BME280;65974;42.664;23.264;2023-02-03T09:38:32;94972.84;;;3.39;56.41
77041;BME280;65974;42.664;23.264;2023-02-03T09:41:17;94975.09;;;2.91;57.33
77041;BME280;65974;42.664;23.264;2023-02-03T09:43:55;94968.50;;;3.14;57.09
77041;BME280;65974;42.664;23.264;2023-02-03T09:46:27;94962.16;;;3.44;56.36
77041;BME280;65974;42.664;23.264;2023-02-03T09:49:03;94960.25;;;3.53;56.33
77041;BME280;65974;42.664;23.264;2023-02-03T09:51:39;94956.25;;;3.47;55.56
77041;BME280;65974;42.664;23.264;2023-02-03T09:56:52;94962.09;;;3.32;56.22
77041;BME280;65974;42.664;23.264;2023-02-03T09:59:21;94964.88;;;3.27;55.83
77041;BME280;65974;42.664;23.264;2023-02-03T10:01:54;94960.56;;;3.23;55.93
77041;BME280;65974;42.664;23.264;2023-02-03T10:04:36;94956.78;;;3.03;55.73
77041;BME280;65974;42.664;23.264;2023-02-03T10:15:02;94946.59;;;3.31;55.02
77041;BME280;65974;42.664;23.264;2023-02-03T10:17:36;94936.53;;;3.03;55.66
77041;BME280;65974;42.664;23.264;2023-02-03T10:23:35;94936.84;;;3.02;56.57
77041;BME280;65974;42.664;23.264;2023-02-03T10:26:09;94932.25;;;2.90;56.74
77041;BME280;65974;42.664;23.264;2023-02-03T10:28:46;94930.78;;;2.72;56.49
77041;BME280;65974;42.664;23.264;2023-02-03T10:31:17;94931.28;;;2.66;56.79
77041;BME280;65974;42.664;23.264;2023-02-03T10:33:43;94917.84;;;2.88;55.27
77041;BME280;65974;42.664;23.264;2023-02-03T10:36:19;94905.97;;;3.11;53.96
77041;BME280;65974;42.664;23.264;2023-02-03T10:39:02;94910.56;;;3.23;54.35
77041;BME280;65974;42.664;23.264;2023-02-03T10:41:32;94908.72;;;3.23;52.99
77041;BME280;65974;42.664;23.264;2023-02-03T10:44:01;94907.03;;;3.19;52.51
77041;BME280;65974;42.664;23.264;2023-02-03T10:46:35;94913.53;;;3.21;53.11
77041;BME280;65974;42.664;23.264;2023-02-03T10:49:03;94920.84;;;3.07;54.08
77041;BME280;65974;42.664;23.264;2023-02-03T10:51:37;94907.91;;;3.02;53.08
77041;BME280;65974;42.664;23.264;2023-02-03T10:54:25;94924.75;;;3.01;52.60
77041;BME280;65974;42.664;23.264;2023-02-03T10:56:50;94938.44;;;2.86;51.16
77041;BME280;65974;42.664;23.264;2023-02-03T10:59:27;94924.31;;;2.61;49.15
77041;BME280;65974;42.664;23.264;2023-02-03T11:01:53;94926.22;;;2.44;49.97
77041;BME280;65974;42.664;23.264;2023-02-03T11:04:25;94925.19;;;2.36;50.88
77041;BME280;65974;42.664;23.264;2023-02-03T11:07:02;94923.03;;;2.29;50.30
77041;BME280;65974;42.664;23.264;2023-02-03T11:09:35;94918.34;;;2.44;50.40
77041;BME280;65974;42.664;23.264;2023-02-03T11:12:09;94922.78;;;2.52;51.11
77041;BME280;65974;42.664;23.264;2023-02-03T11:14:46;94916.31;;;2.58;51.93
77041;BME280;65974;42.664;23.264;2023-02-03T11:17:15;94914.09;;;2.68;52.51
77041;BME280;65974;42.664;23.264;2023-02-03T11:19:50;94916.13;;;2.63;53.65
77041;BME280;65974;42.664;23.264;2023-02-03T11:22:31;94919.22;;;2.56;54.19
77041;BME280;65974;42.664;23.264;2023-02-03T11:25:01;94905.03;;;2.49;52.51
77041;BME280;65974;42.664;23.264;2023-02-03T11:27:32;94903.19;;;2.49;52.05
77041;BME280;65974;42.664;23.264;2023-02-03T11:30:21;94898.72;;;2.41;52.70
77041;BME280;65974;42.664;23.264;2023-02-03T11:32:49;94897.63;;;2.42;53.72
77041;BME280;65974;42.664;23.264;2023-02-03T11:35:23;94890.97;;;2.45;52.04
77041;BME280;65974;42.664;23.264;2023-02-03T11:38:00;94896.69;;;2.47;51.90
77041;BME280;65974;42.664;23.264;2023-02-03T11:40:32;94892.19;;;2.47;52.27
77041;BME280;65974;42.664;23.264;2023-02-03T11:43:23;94879.34;;;2.54;52.49
77041;BME280;65974;42.664;23.264;2023-02-03T11:45:51;94884.28;;;2.56;52.08
77041;BME280;65974;42.664;23.264;2023-02-03T11:48:28;94889.44;;;2.44;52.60
77041;BME280;65974;42.664;23.264;2023-02-03T11:54:11;94881.88;;;2.42;51.29
77041;BME280;65974;42.664;23.264;2023-02-03T11:59:38;94897.94;;;2.49;48.26
77041;BME280;65974;42.664;23.264;2023-02-03T12:02:37;94873.66;;;2.44;47.96
77041;BME280;65974;42.664;23.264;2023-02-03T12:08:20;94863.81;;;2.70;47.69
77041;BME280;65974;42.664;23.264;2023-02-03T12:14:03;94864.81;;;3.15;46.21
77041;BME280;65974;42.664;23.264;2023-02-03T12:17:00;94874.34;;;3.20;47.23
77041;BME280;65974;42.664;23.264;2023-02-03T12:19:50;94875.94;;;2.91;47.93
77041;BME280;65974;42.664;23.264;2023-02-03T12:22:38;94870.38;;;2.84;46.91
77041;BME280;65974;42.664;23.264;2023-02-03T12:28:00;94862.44;;;2.64;46.87
77041;BME280;65974;42.664;23.264;2023-02-03T12:30:34;94854.31;;;2.77;46.84
77041;BME280;65974;42.664;23.264;2023-02-03T12:33:41;94858.91;;;2.89;46.89
77041;BME280;65974;42.664;23.264;2023-02-03T12:36:21;94851.81;;;2.89;46.54
77041;BME280;65974;42.664;23.264;2023-02-03T12:38:53;94851.66;;;2.86;46.59
77041;BME280;65974;42.664;23.264;2023-02-03T12:41:33;94858.19;;;2.80;46.35
77041;BME280;65974;42.664;23.264;2023-02-03T12:44:06;94856.50;;;2.75;46.89
77041;BME280;65974;42.664;23.264;2023-02-03T12:46:43;94859.50;;;2.65;47.53
77041;BME280;65974;42.664;23.264;2023-02-03T12:49:40;94854.25;;;2.65;47.81
77041;BME280;65974;42.664;23.264;2023-02-03T12:52:32;94858.56;;;2.70;48.19
77041;BME280;65974;42.664;23.264;2023-02-03T13:03:30;94831.53;;;2.61;48.13
77041;BME280;65974;42.664;23.264;2023-02-03T13:06:15;94837.09;;;2.59;48.47
77041;BME280;65974;42.664;23.264;2023-02-03T13:11:50;94832.78;;;2.55;50.54
77041;BME280;65974;42.664;23.264;2023-02-03T13:14:22;94833.88;;;2.54;51.69
77041;BME280;65974;42.664;23.264;2023-02-03T13:16:54;94831.44;;;2.49;52.10
77041;BME280;65974;42.664;23.264;2023-02-03T13:19:38;94817.88;;;2.38;52.68
77041;BME280;65974;42.664;23.264;2023-02-03T13:22:10;94831.63;;;2.35;52.83
77041;BME280;65974;42.664;23.264;2023-02-03T13:24:37;94822.38;;;2.29;53.23
77041;BME280;65974;42.664;23.264;2023-02-03T13:27:16;94830.28;;;2.29;54.01
77041;BME280;65974;42.664;23.264;2023-02-03T13:41:29;94822.84;;;2.31;52.75
77041;BME280;65974;42.664;23.264;2023-02-03T13:43:59;94821.81;;;2.23;52.60
77041;BME280;65974;42.664;23.264;2023-02-03T13:46:31;94830.75;;;2.22;53.61
77041;BME280;65974;42.664;23.264;2023-02-03T13:49:01;94825.84;;;2.21;54.43
77041;BME280;65974;42.664;23.264;2023-02-03T13:51:32;94832.47;;;2.18;54.78
77041;BME280;65974;42.664;23.264;2023-02-03T13:54:11;94832.31;;;2.23;55.15
77041;BME280;65974;42.664;23.264;2023-02-03T13:56:38;94849.16;;;2.22;55.40
77041;BME280;65974;42.664;23.264;2023-02-03T14:01:40;94835.56;;;2.20;55.51
77041;BME280;65974;42.664;23.264;2023-02-03T14:04:07;94838.53;;;2.10;55.40
77041;BME280;65974;42.664;23.264;2023-02-03T14:12:37;94828.06;;;2.02;55.85
77041;BME280;65974;42.664;23.264;2023-02-03T14:20:49;94821.69;;;2.03;55.05
77041;BME280;65974;42.664;23.264;2023-02-03T14:23:43;94825.72;;;2.00;54.96
77041;BME280;65974;42.664;23.264;2023-02-03T14:27:01;94807.19;;;2.05;53.09
77041;BME280;65974;42.664;23.264;2023-02-03T14:29:09;94804.69;;;2.09;53.57
77041;BME280;65974;42.664;23.264;2023-02-03T14:37:28;94834.53;;;2.04;54.23
77041;BME280;65974;42.664;23.264;2023-02-03T14:47:57;94813.66;;;2.08;52.97
77041;BME280;65974;42.664;23.264;2023-02-03T14:50:52;94815.84;;;2.06;51.80
77041;BME280;65974;42.664;23.264;2023-02-03T14:53:36;94813.66;;;2.08;52.73
77041;BME280;65974;42.664;23.264;2023-02-03T14:56:20;94811.66;;;2.05;53.54
77041;BME280;65974;42.664;23.264;2023-02-03T14:58:56;94803.03;;;2.04;53.32
77041;BME280;65974;42.664;23.264;2023-02-03T15:06:42;94790.63;;;2.05;53.21